Alamo Heights, Texas
Current Conditions -  °F | °C
As of 8:51 AM on Saturday 25 Oct 2014 (Local Time) from KSAT Reporting Station
Clear Clear  
Wind Chill: 68°   Ceiling: Unl
Heat Index: 68°   Visibility: 10mi
Dew Point: 59°   Wind: 0mph
Humidity: 73%   Direction: NA
Pressure: 30.18"   Gusts: NA
Location:  29.4797°N, 98.4508°W
Report Text: KSAT 251351Z 00000KT 10SM CLR 20/15 A3018 RMK AO2 SLP204 T02000150 $
Loading
Personal Weather Stations






























Interactive Weather Map New forecast layout! Learn more

10-Day Weather Forecast

Advertisements
Track Severe Weather on mobile